Time;durP1;ratioP1;P1;durP2;ratioP2;P2;SDS_P1;SDS_P2;PMS_P1;PMS_P2;Temp;Humidity;BMP_temperature;BMP_pressure;BME280_temperature;BME280_humidity;BME280_pressure;Samples;Min_cycle;Max_cycle;Signal;HPM_P1;HPM_P2
2022/02/09 00:01:13;;;;;;;11.53;6.10;;;9.40;99.90;;;;;;4987585;28;20464;-91
2022/02/09 00:03:50;;;;;;;8.90;4.87;;;9.40;99.90;;;;;;4978425;28;20473;-92
2022/02/09 00:06:36;;;;;;;8.70;5.57;;;9.30;99.90;;;;;;4978728;28;20455;-91
2022/02/09 00:09:04;;;;;;;9.23;5.23;;;9.30;99.90;;;;;;4996682;28;20463;-93
2022/02/09 00:11:40;;;;;;;7.37;4.90;;;9.30;99.90;;;;;;4987279;28;20453;-91
2022/02/09 00:14:16;;;;;;;6.57;4.80;;;9.30;99.90;;;;;;4994450;28;20507;-91
2022/02/09 00:17:05;;;;;;;8.27;5.90;;;9.30;99.90;;;;;;4988049;28;20447;-90
2022/02/09 00:19:40;;;;;;;9.03;6.13;;;9.30;99.90;;;;;;4989215;28;20452;-91
2022/02/09 00:22:21;;;;;;;11.77;6.67;;;9.30;99.90;;;;;;4986063;28;20494;-93
2022/02/09 00:25:09;;;;;;;11.17;6.43;;;9.30;99.90;;;;;;4985107;28;20507;-91
2022/02/09 00:30:54;;;;;;;8.47;5.93;;;9.30;99.90;;;;;;4961147;28;20454;-90
2022/02/09 00:39:40;;;;;;;10.10;5.47;;;9.30;99.90;;;;;;5149574;27;20522;-91
2022/02/09 00:42:25;;;;;;;10.07;6.20;;;9.20;99.90;;;;;;5133891;27;20459;-91
2022/02/09 00:45:21;;;;;;;7.10;5.20;;;9.20;99.90;;;;;;5139175;27;20504;-92
2022/02/09 00:59:20;;;;;;;7.70;5.17;;;9.20;99.90;;;;;;5120492;28;20468;-92
2022/02/09 01:40:36;;;;;;;10.40;7.03;;;9.10;99.90;;;;;;5129174;28;20418;-91
2022/02/09 01:43:50;;;;;;;10.77;5.40;;;9.10;99.90;;;;;;5135367;28;20480;-91
2022/02/09 01:57:10;;;;;;;9.73;5.83;;;8.90;99.90;;;;;;5135312;28;20480;-91
2022/02/09 01:59:37;;;;;;;10.73;6.50;;;9.00;99.90;;;;;;5117259;28;20427;-92
2022/02/09 02:02:07;;;;;;;9.87;6.60;;;9.00;99.90;;;;;;5111696;28;20446;-91
2022/02/09 02:04:34;;;;;;;8.27;5.80;;;9.00;99.90;;;;;;5109606;28;20461;-91
2022/02/09 02:07:04;;;;;;;12.13;6.70;;;9.00;99.90;;;;;;5106423;28;20458;-90
2022/02/09 02:09:35;;;;;;;12.10;7.10;;;9.00;99.90;;;;;;5121858;28;20465;-90
2022/02/09 02:12:09;;;;;;;8.80;7.20;;;9.00;99.90;;;;;;5129786;28;20486;-92
2022/02/09 02:14:41;;;;;;;8.60;6.30;;;8.90;99.90;;;;;;5103559;28;20470;-91
2022/02/09 02:17:15;;;;;;;9.43;6.33;;;8.90;99.90;;;;;;5119870;28;20579;-90
2022/02/09 02:19:46;;;;;;;13.40;8.47;;;9.00;99.90;;;;;;5122739;28;20445;-90
2022/02/09 02:22:35;;;;;;;10.20;6.40;;;9.00;99.90;;;;;;5120749;28;20455;-90
2022/02/09 02:25:35;;;;;;;14.30;6.73;;;8.90;99.90;;;;;;5101546;28;20484;-90
2022/02/09 02:28:20;;;;;;;8.60;5.77;;;9.00;99.90;;;;;;5100906;28;20466;-91
2022/02/09 02:33:56;;;;;;;13.90;6.77;;;9.00;99.90;;;;;;5110072;28;20469;-91
2022/02/09 02:36:56;;;;;;;9.33;6.57;;;9.00;99.90;;;;;;5098344;28;20534;-91
2022/02/09 02:39:54;;;;;;;10.27;6.87;;;9.00;99.90;;;;;;5099150;28;20958;-91
2022/02/09 02:59:29;;;;;;;11.87;6.50;;;9.00;99.90;;;;;;5122160;28;20464;-91
2022/02/09 03:13:00;;;;;;;9.73;6.50;;;9.00;99.90;;;;;;5102714;28;20497;-91
2022/02/09 03:15:35;;;;;;;12.30;6.43;;;9.10;99.90;;;;;;5107395;28;20447;-91
2022/02/09 03:18:26;;;;;;;6.57;5.00;;;9.00;99.90;;;;;;5100166;28;20569;-91
2022/02/09 03:20:58;;;;;;;8.10;5.87;;;9.00;99.90;;;;;;5118720;28;20449;-91
2022/02/09 03:23:42;;;;;;;9.93;6.00;;;9.00;99.90;;;;;;5100869;28;20473;-87
2022/02/09 03:26:31;;;;;;;10.17;6.67;;;9.00;99.90;;;;;;5098288;28;20923;-90
2022/02/09 03:42:46;;;;;;;8.20;6.37;;;8.90;99.90;;;;;;5119406;28;20425;-93
2022/02/09 03:48:31;;;;;;;9.47;6.80;;;8.90;99.90;;;;;;5032203;28;20444;-90
2022/02/09 03:51:17;;;;;;;8.10;5.77;;;8.90;99.90;;;;;;5089148;28;20542;-90
2022/02/09 03:56:41;;;;;;;10.90;5.73;;;8.80;99.90;;;;;;5114801;28;20442;-90
2022/02/09 03:59:07;;;;;;;17.80;7.20;;;8.80;99.90;;;;;;5118251;28;20464;-91
2022/02/09 04:01:39;;;;;;;9.93;5.03;;;8.90;99.90;;;;;;5125682;28;20448;-93
2022/02/09 04:04:07;;;;;;;6.37;5.70;;;8.80;99.90;;;;;;5114490;28;20466;-91
2022/02/09 04:06:36;;;;;;;7.20;5.40;;;8.80;99.90;;;;;;5118672;28;20454;-92
2022/02/09 04:09:08;;;;;;;6.93;5.70;;;8.80;99.90;;;;;;5108675;28;20449;-91
2022/02/09 04:11:41;;;;;;;7.77;5.13;;;8.90;99.90;;;;;;5097324;28;20454;-91
2022/02/09 04:14:14;;;;;;;7.40;5.40;;;8.80;99.90;;;;;;5101643;28;20501;-90
2022/02/09 04:16:54;;;;;;;10.30;5.20;;;8.90;99.90;;;;;;5117580;28;20497;-93
2022/02/09 04:19:31;;;;;;;6.27;4.63;;;8.90;99.90;;;;;;5111649;28;20481;-90
2022/02/09 04:36:25;;;;;;;9.30;4.63;;;8.80;99.90;;;;;;5109019;28;20436;-90
2022/02/09 04:38:57;;;;;;;13.07;4.80;;;8.90;99.90;;;;;;5110372;28;20470;-90
2022/02/09 04:41:48;;;;;;;7.10;5.17;;;8.90;99.90;;;;;;5100087;28;20451;-90
2022/02/09 04:53:04;;;;;;;5.10;3.30;;;8.80;99.90;;;;;;5107664;28;20483;-92
2022/02/09 04:55:46;;;;;;;12.30;3.47;;;8.90;99.90;;;;;;5113070;28;20445;-91
2022/02/09 04:58:23;;;;;;;5.20;2.53;;;8.90;99.90;;;;;;5135497;28;20473;-91
2022/02/09 05:00:54;;;;;;;5.53;3.43;;;8.90;99.90;;;;;;5137303;28;20442;-91
2022/02/09 05:03:44;;;;;;;8.43;3.73;;;8.90;99.90;;;;;;5138946;28;20470;-92
2022/02/09 05:22:59;;;;;;;13.00;4.37;;;9.10;99.90;;;;;;5114880;28;20437;-90
2022/02/09 05:25:46;;;;;;;9.43;5.30;;;9.10;99.90;;;;;;5103586;28;20480;-90
2022/02/09 05:28:14;;;;;;;5.10;3.90;;;9.10;99.90;;;;;;5134279;28;20436;-90
2022/02/09 05:30:52;;;;;;;8.53;3.50;;;9.10;99.90;;;;;;5123795;28;20443;-91
2022/02/09 05:33:20;;;;;;;8.40;3.77;;;9.00;99.90;;;;;;5126316;28;20534;-90
2022/02/09 05:35:47;;;;;;;8.00;4.50;;;9.00;99.90;;;;;;5109844;28;20525;-90
2022/02/09 05:38:19;;;;;;;6.70;4.83;;;9.00;99.90;;;;;;5102806;28;20486;-90
2022/02/09 05:40:46;;;;;;;16.10;4.10;;;9.00;99.90;;;;;;5105505;28;20435;-92
2022/02/09 05:43:14;;;;;;;10.80;4.20;;;9.00;99.90;;;;;;5125745;28;20464;-92
2022/02/09 05:45:59;;;;;;;9.10;3.60;;;9.00;99.90;;;;;;5123500;28;20501;-91
2022/02/09 05:49:15;;;;;;;5.70;2.97;;;9.00;99.90;;;;;;5126647;27;20985;-91
2022/02/09 05:51:33;;;;;;;5.40;3.30;;;9.00;99.90;;;;;;5121032;28;20472;-92
2022/02/09 05:54:19;;;;;;;4.87;4.23;;;9.00;99.90;;;;;;5120815;28;20517;-92
2022/02/09 05:56:49;;;;;;;7.30;2.80;;;9.00;99.90;;;;;;5100062;28;20484;-90
2022/02/09 05:59:28;;;;;;;7.03;2.73;;;9.00;99.90;;;;;;5106128;28;20477;-91
2022/02/09 06:01:55;;;;;;;3.20;2.40;;;9.00;99.90;;;;;;5104998;28;20506;-91
2022/02/09 06:04:22;;;;;;;5.20;2.13;;;9.00;99.90;;;;;;5118831;28;20477;-90
2022/02/09 06:06:49;;;;;;;9.97;3.13;;;9.10;99.90;;;;;;5115836;28;20456;-91
2022/02/09 06:09:18;;;;;;;10.33;3.67;;;9.10;99.90;;;;;;5103513;27;20449;-91
2022/02/09 06:11:48;;;;;;;8.77;3.20;;;9.10;99.90;;;;;;5109185;28;20443;-91
2022/02/09 06:14:37;;;;;;;5.60;3.13;;;9.10;99.90;;;;;;5118119;28;20473;-93
2022/02/09 06:19:53;;;;;;;6.77;3.63;;;9.10;99.90;;;;;;5120657;28;20485;-91
2022/02/09 06:22:20;;;;;;;7.87;4.50;;;9.00;99.90;;;;;;5102845;28;20478;-90
2022/02/09 06:24:49;;;;;;;10.10;5.00;;;8.90;99.90;;;;;;5127886;28;20795;-90
2022/02/09 06:27:17;;;;;;;7.90;4.77;;;8.80;99.90;;;;;;5112074;28;20441;-91
2022/02/09 06:29:48;;;;;;;13.10;4.10;;;8.80;99.90;;;;;;5120255;28;20528;-92
2022/02/09 06:32:17;;;;;;;9.40;4.40;;;8.90;99.90;;;;;;5124710;28;20456;-91
2022/02/09 06:34:45;;;;;;;8.57;3.67;;;9.00;99.90;;;;;;5126551;28;20461;-89
2022/02/09 06:37:18;;;;;;;13.77;4.40;;;9.10;99.90;;;;;;5130086;28;20443;-90
2022/02/09 06:39:55;;;;;;;8.33;4.80;;;9.10;99.90;;;;;;5115017;28;20473;-90
2022/02/09 06:42:24;;;;;;;6.53;3.63;;;9.10;99.90;;;;;;5117746;28;20933;-90
2022/02/09 06:44:52;;;;;;;11.27;4.40;;;9.20;99.90;;;;;;5119221;28;20454;-89
2022/02/09 06:47:22;;;;;;;5.60;3.60;;;9.20;99.90;;;;;;5131320;28;20460;-91
2022/02/09 06:55:54;;;;;;;5.57;3.20;;;9.20;99.90;;;;;;5384035;22;20489;-91
2022/02/09 06:58:31;;;;;;;6.63;3.57;;;9.20;99.90;;;;;;5029059;28;20502;-89
2022/02/09 07:01:00;;;;;;;5.67;3.90;;;9.20;99.90;;;;;;5020057;28;20474;-90
2022/02/09 07:03:27;;;;;;;7.90;3.53;;;9.20;99.90;;;;;;5017788;28;20537;-90
2022/02/09 07:05:54;;;;;;;7.47;3.40;;;9.20;99.90;;;;;;5018170;28;20451;-90
2022/02/09 07:08:21;;;;;;;9.70;3.47;;;9.20;99.90;;;;;;5018280;28;20451;-89
2022/02/09 07:10:51;;;;;;;13.30;5.67;;;9.20;99.90;;;;;;5019999;28;20454;-90
2022/02/09 07:13:19;;;;;;;12.30;5.57;;;9.20;99.90;;;;;;5025856;28;20517;-90
2022/02/09 07:15:52;;;;;;;10.70;5.80;;;9.10;99.90;;;;;;5036605;28;20414;-90
2022/02/09 07:18:41;;;;;;;8.17;5.30;;;9.00;99.90;;;;;;5024063;28;20477;-90
2022/02/09 07:21:19;;;;;;;10.30;5.73;;;8.80;99.90;;;;;;5031413;28;20426;-90
2022/02/09 07:23:51;;;;;;;7.53;4.40;;;8.60;99.90;;;;;;5014950;28;20853;-90
2022/02/09 07:26:27;;;;;;;10.30;5.77;;;8.50;99.90;;;;;;5014116;28;20453;-90
2022/02/09 07:28:59;;;;;;;14.20;5.97;;;8.40;99.90;;;;;;5011898;28;20454;-90
2022/02/09 07:31:26;;;;;;;11.77;6.47;;;8.40;99.90;;;;;;5009863;28;20800;-90
2022/02/09 07:34:00;;;;;;;9.20;5.57;;;8.30;99.90;;;;;;5017844;28;20981;-88
2022/02/09 07:36:31;;;;;;;20.10;6.60;;;8.30;99.90;;;;;;5029646;28;20415;-87
2022/02/09 07:39:02;;;;;;;15.20;5.87;;;8.20;99.90;;;;;;5010944;28;20550;-88
2022/02/09 07:41:36;;;;;;;15.53;6.83;;;8.20;99.90;;;;;;5015003;28;20505;-90
2022/02/09 07:47:07;;;;;;;21.13;7.47;;;8.10;99.90;;;;;;5014033;28;20428;-88
2022/02/09 07:49:52;;;;;;;7.77;5.03;;;8.10;99.90;;;;;;5014115;28;20466;-88
2022/02/09 07:52:24;;;;;;;9.83;4.67;;;8.10;99.90;;;;;;5011718;28;20481;-88
2022/02/09 07:54:56;;;;;;;16.23;6.57;;;8.10;99.90;;;;;;5013423;28;20462;-89
2022/02/09 07:57:25;;;;;;;8.10;5.00;;;8.10;99.90;;;;;;5009480;28;20499;-88
2022/02/09 07:59:56;;;;;;;23.20;6.53;;;8.10;99.90;;;;;;5013257;28;20478;-89
2022/02/09 08:02:27;;;;;;;8.73;5.90;;;8.20;99.90;;;;;;5013519;28;20503;-89
2022/02/09 08:04:59;;;;;;;13.93;6.10;;;8.10;99.90;;;;;;5013893;28;20470;-89
2022/02/09 08:07:45;;;;;;;11.83;7.00;;;8.20;99.90;;;;;;5024887;28;20454;-89
2022/02/09 08:10:25;;;;;;;10.30;6.00;;;8.20;99.90;;;;;;5022034;28;20510;-89
2022/02/09 08:24:57;;;;;;;14.80;8.97;;;8.30;99.90;;;;;;5017184;28;20446;-89
2022/02/09 08:27:22;;;;;;;16.50;7.77;;;8.30;99.90;;;;;;5018465;28;20517;-88
2022/02/09 08:30:19;;;;;;;13.73;6.80;;;8.30;99.90;;;;;;5034143;28;20438;-91
2022/02/09 08:33:17;;;;;;;9.73;5.50;;;8.30;99.90;;;;;;5021415;28;20438;-86
2022/02/09 08:35:59;;;;;;;9.23;4.63;;;8.40;99.90;;;;;;5026914;28;20438;-90
2022/02/09 08:38:30;;;;;;;12.07;5.63;;;8.50;99.90;;;;;;5023439;28;20515;-89
2022/02/09 08:41:18;;;;;;;16.90;7.63;;;8.80;99.90;;;;;;5022420;28;20454;-89
2022/02/09 08:49:26;;;;;;;7.30;5.57;;;11.20;96.30;;;;;;5018095;28;20458;-89
2022/02/09 09:00:24;;;;;;;12.00;5.60;;;13.60;91.60;;;;;;5093359;28;20480;-91
2022/02/09 09:03:09;;;;;;;10.17;6.10;;;13.20;91.20;;;;;;5185541;22;20484;-88
2022/02/09 09:05:58;;;;;;;11.60;6.00;;;13.20;91.40;;;;;;5101732;28;20413;-91
2022/02/09 09:08:41;;;;;;;8.47;6.03;;;13.30;91.60;;;;;;5115474;28;20455;-91
2022/02/09 09:17:21;;;;;;;8.70;4.93;;;12.80;91.00;;;;;;5142511;27;20466;-91
2022/02/09 10:03:25;;;;;;;11.53;4.93;;;14.80;85.90;;;;;;5122835;28;20409;-90
2022/02/09 11:39:12;;;;;;;7.60;4.30;;;26.40;49.10;;;;;;5079179;28;20471;-91
2022/02/09 11:41:57;;;;;;;6.27;3.50;;;26.30;48.30;;;;;;5079725;28;20470;-85
2022/02/09 11:44:51;;;;;;;8.50;3.90;;;25.70;48.40;;;;;;5085041;28;20513;-81
2022/02/09 11:47:44;;;;;;;4.70;3.60;;;25.20;49.30;;;;;;5086639;28;20496;-80
2022/02/09 11:50:51;;;;;;;6.17;4.37;;;24.70;49.50;;;;;;5083185;28;20481;-81
2022/02/09 11:56:44;;;;;;;5.97;3.90;;;24.80;50.30;;;;;;5079489;28;20798;-80
2022/02/09 12:12:00;;;;;;;7.27;4.60;;;25.80;47.50;;;;;;5084466;28;20459;-89
2022/02/09 12:15:01;;;;;;;4.90;2.83;;;26.10;47.30;;;;;;5096964;28;20486;-90
2022/02/09 12:17:37;;;;;;;5.57;3.53;;;24.60;49.20;;;;;;5086677;28;20460;-91
2022/02/09 12:20:15;;;;;;;4.10;3.37;;;26.00;48.20;;;;;;5081934;28;20442;-90
2022/02/09 12:22:47;;;;;;;5.13;3.50;;;27.10;46.50;;;;;;5078734;28;20499;-91
2022/02/09 12:25:14;;;;;;;7.20;3.60;;;26.10;46.20;;;;;;5093935;28;20443;-89
2022/02/09 12:27:49;;;;;;;4.03;2.83;;;26.00;46.70;;;;;;5081361;28;20470;-91
2022/02/09 12:30:21;;;;;;;4.40;3.57;;;25.40;47.50;;;;;;5080067;28;20477;-91
2022/02/09 12:32:49;;;;;;;5.23;4.03;;;25.80;47.90;;;;;;5081467;28;20638;-91
2022/02/09 12:35:17;;;;;;;5.17;3.53;;;24.90;47.90;;;;;;5079201;28;20512;-90
2022/02/09 12:37:47;;;;;;;5.53;3.20;;;25.70;47.80;;;;;;5084459;28;20484;-90
2022/02/09 12:40:17;;;;;;;4.60;3.00;;;26.10;46.60;;;;;;5078141;28;20474;-91
2022/02/09 12:42:47;;;;;;;8.53;3.00;;;25.50;46.90;;;;;;5078953;28;20521;-90
2022/02/09 12:45:15;;;;;;;5.33;2.90;;;25.30;47.50;;;;;;5079277;28;20447;-90
2022/02/09 12:47:44;;;;;;;4.00;3.60;;;24.90;48.30;;;;;;5081972;28;20463;-90
2022/02/09 12:50:13;;;;;;;2.90;2.20;;;25.60;47.40;;;;;;5089921;28;20475;-91
2022/02/09 12:52:41;;;;;;;3.90;3.20;;;25.40;47.40;;;;;;5078037;28;20457;-90
2022/02/09 12:55:13;;;;;;;3.73;2.20;;;25.00;47.50;;;;;;5083258;28;20441;-89
2022/02/09 12:57:43;;;;;;;4.07;3.13;;;25.00;47.70;;;;;;5097075;28;20497;-91
2022/02/09 13:00:27;;;;;;;3.10;2.23;;;25.70;47.60;;;;;;5088527;28;20443;-90
2022/02/09 13:02:55;;;;;;;3.73;2.57;;;24.10;48.50;;;;;;5079466;28;20419;-91
2022/02/09 13:05:22;;;;;;;5.03;2.63;;;23.30;49.80;;;;;;5077920;28;20452;-91
2022/02/09 13:07:57;;;;;;;7.70;2.70;;;22.50;50.50;;;;;;5080765;28;20454;-91
2022/02/09 13:10:26;;;;;;;7.73;2.50;;;22.30;52.00;;;;;;5082365;28;20478;-90
2022/02/09 13:12:56;;;;;;;2.40;2.00;;;22.10;52.10;;;;;;5078773;28;20443;-90
2022/02/09 13:15:37;;;;;;;4.20;2.50;;;22.40;52.30;;;;;;5090554;28;20452;-91
2022/02/09 13:18:30;;;;;;;5.93;2.73;;;22.70;51.00;;;;;;5092605;28;20463;-90
2022/02/09 13:21:53;;;;;;;4.23;2.50;;;22.80;51.60;;;;;;5082739;28;20478;-90
2022/02/09 14:18:10;;;;;;;4.97;2.60;;;23.50;50.90;;;;;;5174938;27;20478;-91
2022/02/09 15:31:02;;;;;;;3.53;2.10;;;17.60;63.20;;;;;;3152477;22;20513;-88
2022/02/09 15:33:37;;;;;;;3.13;2.10;;;17.40;64.10;;;;;;5098493;28;20481;-90
2022/02/09 15:37:00;;;;;;;3.90;2.80;;;17.30;64.60;;;;;;5098812;28;20441;-91
2022/02/09 16:06:00;;;;;;;4.70;2.80;;;15.40;72.40;;;;;;5048531;28;20417;-88
2022/02/09 16:09:05;;;;;;;6.03;2.67;;;15.20;73.80;;;;;;5051134;28;20861;-89
2022/02/09 16:23:11;;;;;;;10.90;4.70;;;15.10;75.50;;;;;;5048229;28;20451;-89
2022/02/09 16:25:55;;;;;;;9.20;5.00;;;14.90;76.10;;;;;;5051896;28;20482;-90
2022/02/09 16:34:19;;;;;;;6.10;3.70;;;14.40;78.50;;;;;;5051874;28;20479;-89
2022/02/09 16:37:17;;;;;;;4.40;3.33;;;14.20;79.40;;;;;;5040881;28;20541;-89
2022/02/09 16:45:09;;;;;;;13.63;4.67;;;13.70;81.50;;;;;;5022546;28;20562;-89
2022/02/09 16:47:55;;;;;;;9.77;4.10;;;13.60;81.90;;;;;;5044597;28;20580;-89
2022/02/09 16:50:27;;;;;;;22.20;4.80;;;13.50;82.70;;;;;;5045716;28;20460;-88
2022/02/09 16:52:59;;;;;;;10.30;4.70;;;13.50;82.80;;;;;;5060599;28;20504;-87
2022/02/09 16:55:57;;;;;;;7.40;5.90;;;13.30;83.50;;;;;;5045360;28;20446;-88
2022/02/09 17:20:24;;;;;;;10.70;5.30;;;12.40;88.80;;;;;;5063873;28;20574;-89
2022/02/09 17:22:50;;;;;;;7.73;5.10;;;12.30;89.30;;;;;;5043097;28;20512;-89
2022/02/09 17:25:17;;;;;;;8.77;5.17;;;12.20;89.50;;;;;;5042435;28;21144;-89
2022/02/09 17:27:47;;;;;;;11.70;5.73;;;12.00;90.10;;;;;;5061890;28;20488;-89
2022/02/09 17:30:42;;;;;;;8.50;5.33;;;11.90;90.50;;;;;;5057692;28;20510;-89
2022/02/09 17:33:14;;;;;;;15.97;5.63;;;11.90;90.90;;;;;;5052222;28;20555;-89
2022/02/09 17:35:49;;;;;;;13.47;5.83;;;11.80;91.10;;;;;;5051534;28;20450;-90
2022/02/09 17:38:27;;;;;;;6.60;5.17;;;11.80;91.30;;;;;;5047573;28;20849;-89
2022/02/09 18:00:07;;;;;;;15.00;8.13;;;11.20;93.30;;;;;;5393112;22;20496;-91
2022/02/09 19:30:49;;;;;;;12.53;9.27;;;9.30;99.90;;;;;;5060828;28;20518;-80
2022/02/09 19:48:13;;;;;;;13.03;7.47;;;8.90;99.90;;;;;;5008152;28;20474;-90
2022/02/09 19:50:54;;;;;;;18.50;8.47;;;8.80;99.90;;;;;;5056550;28;20516;-92
2022/02/09 19:53:36;;;;;;;12.50;8.50;;;8.90;99.90;;;;;;5072851;28;20452;-92
2022/02/09 19:56:15;;;;;;;14.20;8.80;;;8.80;99.90;;;;;;5063982;28;20924;-93
2022/02/09 20:01:45;;;;;;;14.53;8.40;;;8.60;99.90;;;;;;5043234;28;20437;-93
2022/02/09 20:04:38;;;;;;;16.60;9.40;;;8.50;99.90;;;;;;5064993;28;20480;-93
2022/02/09 20:07:07;;;;;;;13.20;9.03;;;8.50;99.90;;;;;;5071279;28;20478;-92
2022/02/09 20:09:40;;;;;;;16.27;9.33;;;8.40;99.90;;;;;;5069652;28;20487;-91
2022/02/09 20:12:08;;;;;;;13.67;8.03;;;8.40;99.90;;;;;;5079762;28;20416;-90
2022/02/09 20:38:58;;;;;;;21.03;13.97;;;7.90;99.90;;;;;;5084329;28;20493;-91
2022/02/09 20:42:01;;;;;;;21.30;10.03;;;7.90;99.90;;;;;;5241404;22;20486;-90
2022/02/09 20:48:25;;;;;;;20.17;13.50;;;7.80;99.90;;;;;;5000762;28;20447;-92
2022/02/09 20:51:38;;;;;;;17.50;12.00;;;7.70;99.90;;;;;;4998958;28;20479;-93
2022/02/09 21:00:43;;;;;;;17.53;10.70;;;7.50;99.90;;;;;;5292549;22;20615;-91
2022/02/09 21:03:29;;;;;;;17.17;11.77;;;7.50;99.90;;;;;;5063901;28;20455;-92
2022/02/09 21:06:50;;;;;;;17.27;12.43;;;7.40;99.90;;;;;;5064429;28;20488;-92
2022/02/09 21:09:32;;;;;;;17.03;12.20;;;7.30;99.90;;;;;;5022404;28;20459;-91
2022/02/09 21:12:10;;;;;;;16.30;11.80;;;7.30;99.90;;;;;;5033621;28;20457;-92
2022/02/09 21:15:08;;;;;;;18.30;12.80;;;7.30;99.90;;;;;;5043370;28;20449;-92
2022/02/09 21:18:03;;;;;;;15.30;11.23;;;7.30;99.90;;;;;;5020135;28;20467;-92
2022/02/09 23:27:03;;;;;;;17.73;12.67;;;6.00;99.90;;;;;;5039031;28;20516;-92
2022/02/09 23:55:02;;;;;;;13.20;11.13;;;5.90;99.90;;;;;;5018008;28;20502;-91
